Caldazinha, Brazil
Current Conditions -  °F | °C
As of 2:15 PM on Saturday 22 Nov 2014 (Local Time) from SBGO Reporting Station
Thunderstorm Thunderstorm  
Wind Chill: 22°   Ceiling: Unl
Heat Index: 22°   Visibility: 6mi
Dew Point: 19°   Wind: 18mph
Humidity: 83%   Direction: 10°N
Pressure: 29.97"   Gusts: 30mph
Location:  16.71°S, 49°W
Report Text: SBGO 221615Z 01016G26KT 330V040 9999 3000SE -TSRA FEW015 SCT030SCT035CB 22/19 Q1015
Loading
Personal Weather Stations






























Interactive Weather Map New forecast layout! Learn more

10-Day Weather Forecast

Advertisements
Track Severe Weather on mobile